createdAt,value
2019-05-02T00:00:32.713Z,30.23
2019-05-02T00:03:35.902Z,28.92
2019-05-02T00:06:37.988Z,32.08
2019-05-02T00:09:47.190Z,30.32
2019-05-02T00:12:44.466Z,26.17
2019-05-02T00:15:47.650Z,26.57
2019-05-02T00:18:49.234Z,30.40
2019-05-02T00:21:50.515Z,29.27
2019-05-02T00:24:51.823Z,30.25
2019-05-02T00:27:53.235Z,29.87
2019-05-02T00:30:56.201Z,33.92
2019-05-02T00:33:57.498Z,24.07
2019-05-02T00:36:58.787Z,26.42
2019-05-02T00:40:25.284Z,25.32
2019-05-02T00:43:23.213Z,25.80
2019-05-02T00:46:24.709Z,26.85
2019-05-02T00:49:25.994Z,24.20
2019-05-02T00:52:27.764Z,27.45
2019-05-02T00:55:33.768Z,24.75
2019-05-02T00:58:33.112Z,22.98
2019-05-02T01:01:42.405Z,22.77
2019-05-02T01:04:45.774Z,25.43
2019-05-02T01:07:47.053Z,28.57
2019-05-02T01:10:52.162Z,25.20
2019-05-02T01:13:55.749Z,24.52
2019-05-02T01:16:56.243Z,24.67
2019-05-02T01:19:57.575Z,24.18
2019-05-02T01:22:59.281Z,23.35
2019-05-02T01:26:00.557Z,25.23
2019-05-02T01:29:12.962Z,25.02
2019-05-02T01:32:17.405Z,24.77
2019-05-02T01:35:27.060Z,28.98
2019-05-02T01:38:31.715Z,32.17
2019-05-02T01:41:32.862Z,25.95
2019-05-02T01:44:36.494Z,22.70
2019-05-02T01:47:37.599Z,25.17
2019-05-02T01:50:38.866Z,25.20
2019-05-02T01:53:40.658Z,25.60
2019-05-02T01:56:41.929Z,21.97
2019-05-02T01:59:43.409Z,28.27
2019-05-02T02:02:44.677Z,24.90
2019-05-02T02:05:47.077Z,28.57
2019-05-02T02:08:48.358Z,27.67
2019-05-02T02:11:49.843Z,23.12
2019-05-02T02:14:53.462Z,25.17
2019-05-02T02:17:54.406Z,27.00
2019-05-02T02:21:14.489Z,29.40
2019-05-02T02:24:25.229Z,27.77
2019-05-02T02:27:27.125Z,28.02
2019-05-02T02:30:28.673Z,28.98
2019-05-02T02:33:29.946Z,25.55
2019-05-02T02:36:34.531Z,24.25
2019-05-02T02:39:34.380Z,29.12
2019-05-02T02:42:35.793Z,27.52
2019-05-02T02:45:41.290Z,32.42
2019-05-02T02:48:42.947Z,27.15
2019-05-02T02:51:44.240Z,25.52
2019-05-02T02:54:45.713Z,29.18
2019-05-02T02:57:46.987Z,28.32
2019-05-02T03:00:49.376Z,27.20
2019-05-02T03:03:50.790Z,34.73
2019-05-02T03:06:54.066Z,29.27
2019-05-02T03:09:59.690Z,26.45
2019-05-02T03:13:21.697Z,26.82
2019-05-02T03:16:22.560Z,30.45
2019-05-02T03:19:24.049Z,29.07
2019-05-02T03:22:25.384Z,29.67
2019-05-02T03:25:49.346Z,36.20
2019-05-02T03:28:30.241Z,32.48
2019-05-02T03:31:31.805Z,30.50
2019-05-02T03:34:47.148Z,32.78
2019-05-02T03:37:36.597Z,28.98
2019-05-02T03:40:39.060Z,34.03
2019-05-02T03:43:41.171Z,36.58
2019-05-02T03:46:42.915Z,34.15
2019-05-02T03:49:48.816Z,30.82
2019-05-02T03:52:47.736Z,32.93
2019-05-02T03:55:49.010Z,33.30
2019-05-02T03:58:55.910Z,33.18
2019-05-02T04:01:53.600Z,35.30
2019-05-02T04:05:00.501Z,34.98
2019-05-02T04:08:00.687Z,37.42
2019-05-02T04:11:16.745Z,36.73
2019-05-02T04:14:36.624Z,40.35
2019-05-02T04:17:21.433Z,35.78
2019-05-02T04:20:22.747Z,35.20
2019-05-02T04:23:27.708Z,42.88
2019-05-02T04:26:27.628Z,40.55
2019-05-02T04:29:31.193Z,39.58
2019-05-02T04:32:32.190Z,43.40
2019-05-02T04:35:34.927Z,42.35
2019-05-02T04:38:44.455Z,44.58
2019-05-02T04:41:42.380Z,41.80
2019-05-02T04:45:07.644Z,41.85
2019-05-02T04:47:54.540Z,51.05
2019-05-02T04:50:51.762Z,41.75
2019-05-02T04:53:53.205Z,40.48
2019-05-02T04:57:14.416Z,38.38
2019-05-02T05:00:19.743Z,39.70
2019-05-02T05:03:21.295Z,48.10
2019-05-02T05:06:22.886Z,39.35
2019-05-02T05:09:24.156Z,41.15
2019-05-02T05:12:27.739Z,44.63
2019-05-02T05:15:38.339Z,46.75
2019-05-02T05:18:32.235Z,42.27
2019-05-02T05:21:33.673Z,43.75
2019-05-02T05:24:42.367Z,45.33
2019-05-02T05:27:43.243Z,41.40
2019-05-02T05:30:45.517Z,47.98
2019-05-02T05:33:47.947Z,43.30
2019-05-02T05:36:49.444Z,40.25
2019-05-02T05:39:52.520Z,43.40
2019-05-02T05:42:54.718Z,39.20
2019-05-02T05:46:09.161Z,40.15
2019-05-02T05:49:00.419Z,37.00
2019-05-02T05:52:03.816Z,34.63
2019-05-02T05:55:05.348Z,33.20
2019-05-02T05:58:14.652Z,32.05
2019-05-02T06:01:10.410Z,32.75
2019-05-02T06:04:13.953Z,28.70
2019-05-02T06:07:17.644Z,26.80
2019-05-02T06:10:19.121Z,28.98
2019-05-02T06:13:20.717Z,26.57
2019-05-02T06:16:22.096Z,23.20
2019-05-02T06:19:23.635Z,29.95
2019-05-02T06:22:25.679Z,25.23
2019-05-02T06:25:34.052Z,26.57
2019-05-02T06:28:31.146Z,27.95
2019-05-02T06:31:32.638Z,24.47
2019-05-02T06:34:38.742Z,25.27
2019-05-02T06:37:40.320Z,22.65
2019-05-02T06:40:44.822Z,27.87
2019-05-02T06:43:46.545Z,22.80
2019-05-02T06:46:47.706Z,22.77
2019-05-02T06:49:49.226Z,23.10
2019-05-02T06:52:51.572Z,23.47
2019-05-02T06:55:53.506Z,25.20
2019-05-02T06:58:55.101Z,20.95
2019-05-02T07:01:58.674Z,24.77
2019-05-02T07:05:00.231Z,24.85
2019-05-02T07:08:06.671Z,23.20
2019-05-02T07:11:06.358Z,20.95
2019-05-02T07:14:13.323Z,27.02
2019-05-02T07:17:32.038Z,21.05
2019-05-02T07:20:35.191Z,21.57
2019-05-02T07:23:36.786Z,20.60
2019-05-02T07:26:38.485Z,19.57
2019-05-02T07:29:40.200Z,19.27
2019-05-02T07:32:41.487Z,26.27
2019-05-02T07:35:42.963Z,22.60
2019-05-02T07:38:44.256Z,19.92
2019-05-02T07:41:46.200Z,20.10
2019-05-02T07:44:48.213Z,23.20
2019-05-02T07:47:50.452Z,24.45
2019-05-02T07:50:52.096Z,18.85
2019-05-02T07:53:55.668Z,23.67
2019-05-02T07:56:57.401Z,22.25
2019-05-02T08:00:00.446Z,16.10
2019-05-02T08:03:04.976Z,13.13
2019-05-02T08:06:06.235Z,14.45
2019-05-02T08:09:09.210Z,17.37
2019-05-02T08:12:11.509Z,14.15
2019-05-02T08:15:15.285Z,16.20
2019-05-02T08:18:17.001Z,15.80
2019-05-02T08:21:18.490Z,13.48
2019-05-02T08:24:20.430Z,14.15
2019-05-02T08:27:24.054Z,14.05
2019-05-02T08:30:27.363Z,13.45
2019-05-02T08:33:34.380Z,12.28
2019-05-02T08:36:32.217Z,17.23
2019-05-02T08:39:35.165Z,13.93
2019-05-02T08:42:37.477Z,12.78
2019-05-02T08:45:39.635Z,12.33
2019-05-02T08:48:43.636Z,11.68
2019-05-02T08:51:45.362Z,9.33
2019-05-02T08:54:46.770Z,8.10
2019-05-02T08:57:48.386Z,9.25
2019-05-02T09:00:49.814Z,11.12
2019-05-02T09:03:56.572Z,12.37
2019-05-02T09:06:58.876Z,13.10
2019-05-02T09:10:00.174Z,9.48
2019-05-02T09:13:02.650Z,11.73
2019-05-02T09:16:06.070Z,10.45
2019-05-02T09:19:07.358Z,7.40
2019-05-02T09:22:13.242Z,9.78
2019-05-02T09:25:12.581Z,11.20
2019-05-02T09:28:17.048Z,9.33
2019-05-02T09:31:17.766Z,10.48
2019-05-02T09:34:22.665Z,5.22
2019-05-02T09:37:22.761Z,6.55
2019-05-02T09:40:24.366Z,10.15
2019-05-02T09:43:29.372Z,5.75
2019-05-02T09:46:28.928Z,12.13
2019-05-02T09:49:32.454Z,7.05
2019-05-02T09:52:39.763Z,6.45
2019-05-02T09:55:42.338Z,11.18
2019-05-02T09:58:42.580Z,6.80
2019-05-02T10:01:43.965Z,8.08
2019-05-02T10:04:45.563Z,10.75
2019-05-02T10:07:48.554Z,9.50
2019-05-02T10:10:52.040Z,8.95
2019-05-02T10:13:55.393Z,6.70
2019-05-02T10:16:57.604Z,12.18
2019-05-02T10:20:01.876Z,7.53
2019-05-02T10:23:03.263Z,6.80
2019-05-02T10:26:05.218Z,7.55
2019-05-02T10:29:07.178Z,8.30
2019-05-02T10:32:15.038Z,8.00
2019-05-02T10:35:13.805Z,11.80
2019-05-02T10:38:19.379Z,8.75
2019-05-02T10:41:19.623Z,7.15
2019-05-02T10:44:22.557Z,8.93
2019-05-02T10:47:24.240Z,7.12
2019-05-02T10:50:27.852Z,10.88
2019-05-02T10:53:29.805Z,8.63
2019-05-02T10:56:32.445Z,6.80
2019-05-02T10:59:34.055Z,10.23
2019-05-02T11:02:46.265Z,5.85
2019-05-02T11:05:49.893Z,6.53
2019-05-02T11:08:52.487Z,7.35
2019-05-02T11:11:55.101Z,7.12
2019-05-02T11:15:10.335Z,8.65
2019-05-02T11:18:12.661Z,6.30
2019-05-02T11:21:14.606Z,11.93
2019-05-02T11:24:16.079Z,9.85
2019-05-02T11:27:17.618Z,18.23
2019-05-02T11:30:24.931Z,8.65
2019-05-02T11:33:22.935Z,7.58
2019-05-02T11:36:27.391Z,12.82
2019-05-02T11:39:35.770Z,8.30
2019-05-02T11:42:32.323Z,12.88
2019-05-02T11:45:34.338Z,8.18
2019-05-02T11:48:35.626Z,9.08
2019-05-02T11:51:37.395Z,9.10
2019-05-02T11:54:39.212Z,10.85
2019-05-02T11:57:42.575Z,8.85
2019-05-02T12:00:49.333Z,11.12
2019-05-02T12:03:49.573Z,9.35
2019-05-02T12:07:00.921Z,9.08
2019-05-02T12:09:57.020Z,8.88
2019-05-02T12:12:58.803Z,8.18
2019-05-02T12:16:00.291Z,9.35
2019-05-02T12:19:11.762Z,9.60
2019-05-02T12:22:11.968Z,10.78
2019-05-02T12:25:12.460Z,11.68
2019-05-02T12:28:13.924Z,9.63
2019-05-02T12:31:27.858Z,9.43
2019-05-02T12:34:29.435Z,7.35
2019-05-02T12:37:32.618Z,12.68
2019-05-02T12:40:34.062Z,16.00
2019-05-02T12:43:35.444Z,9.35
2019-05-02T12:46:36.859Z,7.53
2019-05-02T12:49:38.443Z,12.13
2019-05-02T12:52:39.833Z,8.85
2019-05-02T12:55:42.126Z,9.70
2019-05-02T12:58:43.630Z,14.15
2019-05-02T13:01:45.129Z,13.68
2019-05-02T13:04:46.804Z,10.55
2019-05-02T13:07:50.381Z,9.50
2019-05-02T13:11:06.646Z,12.40
2019-05-02T13:14:15.916Z,10.20
2019-05-02T13:17:11.860Z,15.48
2019-05-02T13:20:14.749Z,10.53
2019-05-02T13:23:22.444Z,13.13
2019-05-02T13:26:27.140Z,12.28
2019-05-02T13:29:26.988Z,9.90
2019-05-02T13:32:33.382Z,15.93
2019-05-02T13:35:36.590Z,10.60
2019-05-02T13:38:37.940Z,9.85
2019-05-02T13:41:39.352Z,14.25
2019-05-02T13:44:48.681Z,13.62
2019-05-02T13:47:51.895Z,8.73
2019-05-02T13:50:53.501Z,12.45
2019-05-02T13:53:56.691Z,13.70
2019-05-02T13:56:58.285Z,15.38
2019-05-02T13:59:59.553Z,17.77
2019-05-02T14:03:02.861Z,7.60
2019-05-02T14:06:04.237Z,11.05
2019-05-02T14:09:16.978Z,8.25
2019-05-02T14:12:19.447Z,10.15
2019-05-02T14:15:22.851Z,12.60
2019-05-02T14:18:29.132Z,10.85
2019-05-02T14:21:27.525Z,16.52
2019-05-02T14:24:28.929Z,12.55
2019-05-02T14:27:32.052Z,8.98
2019-05-02T14:30:39.367Z,7.55
2019-05-02T14:33:42.301Z,12.30
2019-05-02T14:36:44.035Z,10.30
2019-05-02T14:39:47.228Z,7.55
2019-05-02T14:42:48.505Z,17.62
2019-05-02T14:45:50.922Z,9.68
2019-05-02T14:48:53.198Z,11.93
2019-05-02T14:51:57.192Z,10.88
2019-05-02T14:54:57.970Z,6.75
2019-05-02T14:58:02.172Z,8.28
2019-05-02T15:01:03.290Z,11.60
2019-05-02T15:04:08.257Z,5.78
2019-05-02T15:07:08.568Z,5.70
2019-05-02T15:10:10.145Z,10.40
2019-05-02T15:13:36.399Z,6.95
2019-05-02T15:16:42.262Z,11.08
2019-05-02T15:19:39.542Z,9.53
2019-05-02T15:22:42.509Z,7.58
2019-05-02T15:25:47.119Z,18.02
2019-05-02T15:28:47.189Z,9.80
2019-05-02T15:32:13.653Z,10.10
2019-05-02T15:35:31.941Z,8.43
2019-05-02T15:38:37.271Z,8.13
2019-05-02T15:41:39.903Z,8.53
2019-05-02T15:44:40.154Z,11.97
2019-05-02T15:47:43.041Z,11.10
2019-05-02T15:50:50.113Z,10.48
2019-05-02T15:54:05.991Z,8.30
2019-05-02T15:57:05.894Z,11.15
2019-05-02T16:00:09.163Z,14.18
2019-05-02T16:03:12.218Z,17.62
2019-05-02T16:06:16.335Z,16.52
2019-05-02T16:09:16.870Z,8.08
2019-05-02T16:12:18.266Z,15.30
2019-05-02T16:15:24.645Z,12.25
2019-05-02T16:18:23.646Z,8.85
2019-05-02T16:21:42.695Z,10.23
2019-05-02T16:24:48.781Z,12.07
2019-05-02T16:27:48.591Z,11.00
2019-05-02T16:30:52.607Z,13.68
2019-05-02T16:33:57.416Z,12.37
2019-05-02T16:37:13.288Z,22.58
2019-05-02T16:40:14.677Z,14.60
2019-05-02T16:43:16.065Z,15.28
2019-05-02T16:46:18.239Z,8.75
2019-05-02T16:49:19.561Z,11.60
2019-05-02T16:52:22.145Z,20.43
2019-05-02T16:55:26.540Z,59.25
2019-05-02T16:58:27.306Z,67.08
2019-05-02T17:01:28.685Z,49.63
2019-05-02T17:04:31.942Z,95.62
2019-05-02T17:07:42.901Z,34.43
2019-05-02T17:10:47.247Z,33.15
2019-05-02T17:13:49.513Z,16.37
2019-05-02T17:16:52.343Z,21.40
2019-05-02T17:19:54.624Z,19.32
2019-05-02T17:23:01.866Z,16.27
2019-05-02T17:26:01.456Z,18.07
2019-05-02T17:29:03.644Z,20.95
2019-05-02T17:32:05.335Z,23.73
2019-05-02T17:35:09.930Z,24.18
2019-05-02T17:38:12.023Z,19.25
2019-05-02T17:41:13.962Z,19.95
2019-05-02T17:44:18.525Z,18.70
2019-05-02T17:47:19.396Z,22.70
2019-05-02T17:50:22.824Z,28.80
2019-05-02T17:53:24.621Z,20.35
2019-05-02T17:56:26.257Z,21.48
2019-05-02T17:59:33.015Z,21.87
2019-05-02T18:02:31.702Z,23.98
2019-05-02T18:05:35.661Z,22.35
2019-05-02T18:08:37.536Z,22.35
2019-05-02T18:11:38.925Z,22.62
2019-05-02T18:14:42.186Z,22.73
2019-05-02T18:17:43.877Z,24.50
2019-05-02T18:20:46.634Z,20.80
2019-05-02T18:23:47.925Z,21.77
2019-05-02T18:26:51.578Z,23.18
2019-05-02T18:29:53.237Z,28.70
2019-05-02T18:32:57.773Z,28.85
2019-05-02T18:35:58.109Z,31.37
2019-05-02T18:39:01.610Z,38.70
2019-05-02T18:42:03.414Z,37.28
2019-05-02T18:45:07.966Z,31.73
2019-05-02T18:48:09.435Z,35.60
2019-05-02T18:51:10.907Z,29.23
2019-05-02T18:54:12.454Z,41.65
2019-05-02T18:57:17.189Z,31.33
2019-05-02T19:00:17.426Z,34.10
2019-05-02T19:03:18.859Z,31.75
2019-05-02T19:06:21.889Z,36.60
2019-05-02T19:09:29.830Z,41.02
2019-05-02T19:12:26.747Z,34.03
2019-05-02T19:15:28.085Z,31.65
2019-05-02T19:18:29.585Z,36.30
2019-05-02T19:21:34.393Z,33.13
2019-05-02T19:24:36.503Z,40.67
2019-05-02T19:27:52.152Z,34.08
2019-05-02T19:30:57.389Z,32.58
2019-05-02T19:34:00.044Z,33.75
2019-05-02T19:37:02.975Z,40.90
2019-05-02T19:40:07.038Z,38.48
2019-05-02T19:43:08.518Z,38.33
2019-05-02T19:46:11.986Z,44.35
2019-05-02T19:49:16.208Z,49.25
2019-05-02T19:52:17.198Z,51.80
2019-05-02T19:55:20.080Z,53.90
2019-05-02T19:58:22.313Z,46.68
2019-05-02T20:01:26.540Z,44.03
2019-05-02T20:04:26.959Z,51.90
2019-05-02T20:07:28.430Z,44.40
2019-05-02T20:10:32.303Z,43.90
2019-05-02T20:13:35.253Z,45.08
2019-05-02T20:16:45.694Z,43.83
2019-05-02T20:19:47.316Z,47.58
2019-05-02T20:22:49.623Z,50.45
2019-05-02T20:25:52.427Z,59.65
2019-05-02T20:28:53.997Z,66.20
2019-05-02T20:31:55.483Z,64.05
2019-05-02T20:34:57.600Z,68.67
2019-05-02T20:37:59.340Z,69.42
2019-05-02T20:41:02.757Z,66.05
2019-05-02T20:44:04.598Z,55.25
2019-05-02T20:47:06.054Z,54.73
2019-05-02T20:50:07.583Z,53.42
2019-05-02T20:53:12.006Z,55.52
2019-05-02T20:56:12.655Z,52.88
2019-05-02T20:59:14.095Z,53.63
2019-05-02T21:02:15.542Z,49.33
2019-05-02T21:05:19.714Z,50.58
2019-05-02T21:08:38.218Z,53.73
2019-05-02T21:11:43.216Z,54.15
2019-05-02T21:14:44.729Z,51.73
2019-05-02T21:17:46.353Z,54.27
2019-05-02T21:20:48.318Z,56.45
2019-05-02T21:23:52.789Z,61.90
2019-05-02T21:26:53.849Z,60.03
2019-05-02T21:29:55.121Z,56.40
2019-05-02T21:32:56.886Z,59.03
2019-05-02T21:35:58.281Z,58.50
2019-05-02T21:38:59.822Z,58.40
2019-05-02T21:42:02.333Z,59.45
2019-05-02T21:45:04.818Z,52.45
2019-05-02T21:48:06.226Z,60.40
2019-05-02T21:51:18.905Z,51.98
2019-05-02T21:54:38.717Z,64.35
2019-05-02T21:57:40.553Z,64.75
2019-05-02T22:00:46.481Z,58.60
2019-05-02T22:03:47.877Z,59.13
2019-05-02T22:06:49.350Z,66.70
2019-05-02T22:09:52.408Z,60.35
2019-05-02T22:12:54.066Z,54.70
2019-05-02T22:15:55.384Z,59.27
2019-05-02T22:18:57.276Z,53.73
2019-05-02T22:21:58.566Z,52.03
2019-05-02T22:25:02.240Z,62.45
2019-05-02T22:28:03.648Z,55.17
2019-05-02T22:31:05.113Z,62.85
2019-05-02T22:34:06.525Z,54.45
2019-05-02T22:37:09.930Z,61.15
2019-05-02T22:40:16.101Z,56.02
2019-05-02T22:43:17.573Z,54.33
2019-05-02T22:46:37.693Z,54.08
2019-05-02T22:49:39.186Z,47.10
2019-05-02T22:52:41.622Z,55.33
2019-05-02T22:55:44.839Z,56.55
2019-05-02T22:58:46.108Z,51.28
2019-05-02T23:01:47.779Z,57.73
2019-05-02T23:04:49.174Z,61.60
2019-05-02T23:07:52.643Z,60.20
2019-05-02T23:10:53.829Z,64.67
2019-05-02T23:13:55.432Z,54.18
2019-05-02T23:16:56.733Z,67.95
2019-05-02T23:19:58.135Z,69.17
2019-05-02T23:22:59.525Z,63.02
2019-05-02T23:26:03.137Z,65.83
2019-05-02T23:29:07.005Z,71.12
2019-05-02T23:32:08.573Z,73.80
2019-05-02T23:35:09.887Z,83.90
2019-05-02T23:38:12.596Z,76.75
2019-05-02T23:41:13.985Z,76.60
2019-05-02T23:44:15.718Z,74.25
2019-05-02T23:47:17.038Z,74.22
2019-05-02T23:50:18.629Z,80.70
2019-05-02T23:53:22.008Z,78.30
2019-05-02T23:56:23.176Z,78.67
2019-05-02T23:59:24.568Z,83.82
